You are listening to:
RJAA Clearance Delivery #2 - Tokyo, Japan

RJAA 051530Z 36007KT 9999 FEW020 BKN030 BKN060 07/04 Q1030 NOSIG RMK 1CU020 5SC030 7SC060 A3043

If stream doesn't start automatically press the play button
If stream stops then reload player then press play